sensor_id;sensor_type;location;lat;lon;timestamp;pressure;altitude;pressure_sealevel;temperature;humidity
15914;BME280;8055;51.930;8.840;2024-01-06T00:00:19;75640.53;;;-145.72;100.00
15914;BME280;8055;51.930;8.840;2024-01-06T00:02:46;75642.59;;;-145.72;100.00
15914;BME280;8055;51.930;8.840;2024-01-06T00:05:11;75650.88;;;-145.72;100.00
15914;BME280;8055;51.930;8.840;2024-01-06T00:07:37;75655.03;;;-145.72;100.00
15914;BME280;8055;51.930;8.840;2024-01-06T00:10:02;75659.16;;;-145.72;100.00
15914;BME280;8055;51.930;8.840;2024-01-06T00:12:28;75671.56;;;-145.72;100.00
15914;BME280;8055;51.930;8.840;2024-01-06T00:14:53;75671.56;;;-145.72;100.00
15914;BME280;8055;51.930;8.840;2024-01-06T00:17:19;75669.50;;;-145.72;100.00
15914;BME280;8055;51.930;8.840;2024-01-06T00:19:44;75671.56;;;-145.72;100.00
15914;BME280;8055;51.930;8.840;2024-01-06T00:22:10;75673.63;;;-145.72;100.00
15914;BME280;8055;51.930;8.840;2024-01-06T00:24:36;75681.91;;;-145.72;100.00
15914;BME280;8055;51.930;8.840;2024-01-06T00:27:01;75675.72;;;-145.72;100.00
15914;BME280;8055;51.930;8.840;2024-01-06T00:29:26;75688.13;;;-145.72;100.00
15914;BME280;8055;51.930;8.840;2024-01-06T00:31:52;75690.19;;;-145.72;100.00
15914;BME280;8055;51.930;8.840;2024-01-06T00:34:17;75696.41;;;-145.72;100.00
15914;BME280;8055;51.930;8.840;2024-01-06T00:36:42;75684.00;;;-145.72;100.00
15914;BME280;8055;51.930;8.840;2024-01-06T00:39:08;75688.13;;;-145.72;100.00
15914;BME280;8055;51.930;8.840;2024-01-06T00:41:33;75690.19;;;-145.72;100.00
15914;BME280;8055;51.930;8.840;2024-01-06T00:43:58;75686.06;;;-145.72;100.00
15914;BME280;8055;51.930;8.840;2024-01-06T00:46:24;75694.34;;;-145.72;100.00
15914;BME280;8055;51.930;8.840;2024-01-06T00:48:49;75696.41;;;-145.72;100.00
15914;BME280;8055;51.930;8.840;2024-01-06T00:51:15;75698.47;;;-145.72;100.00
15914;BME280;8055;51.930;8.840;2024-01-06T00:53:40;75700.53;;;-145.72;100.00
15914;BME280;8055;51.930;8.840;2024-01-06T00:56:05;75706.75;;;-145.72;100.00
15914;BME280;8055;51.930;8.840;2024-01-06T00:58:31;75708.81;;;-145.72;100.00
15914;BME280;8055;51.930;8.840;2024-01-06T01:00:56;75708.81;;;-145.72;100.00
15914;BME280;8055;51.930;8.840;2024-01-06T01:03:21;75712.94;;;-145.72;100.00
15914;BME280;8055;51.930;8.840;2024-01-06T01:05:47;75719.16;;;-145.72;100.00
15914;BME280;8055;51.930;8.840;2024-01-06T01:08:12;75719.16;;;-145.72;100.00
15914;BME280;8055;51.930;8.840;2024-01-06T01:10:38;75710.88;;;-145.72;100.00
15914;BME280;8055;51.930;8.840;2024-01-06T01:13:03;75721.22;;;-145.72;100.00
15914;BME280;8055;51.930;8.840;2024-01-06T01:15:29;75723.31;;;-145.72;100.00
15914;BME280;8055;51.930;8.840;2024-01-06T01:17:54;75723.31;;;-145.72;100.00
15914;BME280;8055;51.930;8.840;2024-01-06T01:20:19;75725.38;;;-145.72;100.00
15914;BME280;8055;51.930;8.840;2024-01-06T01:22:44;75729.50;;;-145.72;100.00
15914;BME280;8055;51.930;8.840;2024-01-06T01:25:10;75746.06;;;-145.72;100.00
15914;BME280;8055;51.930;8.840;2024-01-06T01:27:37;75744.00;;;-145.72;100.00
15914;BME280;8055;51.930;8.840;2024-01-06T01:30:03;75744.00;;;-145.72;100.00
15914;BME280;8055;51.930;8.840;2024-01-06T01:32:28;75758.47;;;-145.72;100.00
15914;BME280;8055;51.930;8.840;2024-01-06T01:34:53;75756.41;;;-145.72;100.00
15914;BME280;8055;51.930;8.840;2024-01-06T01:37:20;75754.34;;;-145.72;100.00
15914;BME280;8055;51.930;8.840;2024-01-06T01:39:45;75752.28;;;-145.72;100.00
15914;BME280;8055;51.930;8.840;2024-01-06T01:42:10;75760.53;;;-145.72;100.00
15914;BME280;8055;51.930;8.840;2024-01-06T01:44:36;75768.81;;;-145.72;100.00
15914;BME280;8055;51.930;8.840;2024-01-06T01:47:03;75766.75;;;-145.72;100.00
15914;BME280;8055;51.930;8.840;2024-01-06T01:49:29;75760.53;;;-145.72;100.00
15914;BME280;8055;51.930;8.840;2024-01-06T01:51:55;75762.63;;;-145.72;100.00
15914;BME280;8055;51.930;8.840;2024-01-06T01:54:20;75764.69;;;-145.72;100.00
15914;BME280;8055;51.930;8.840;2024-01-06T01:56:46;75758.47;;;-145.72;100.00
15914;BME280;8055;51.930;8.840;2024-01-06T01:59:13;75758.47;;;-145.72;100.00
15914;BME280;8055;51.930;8.840;2024-01-06T02:01:41;75762.63;;;-145.72;100.00
15914;BME280;8055;51.930;8.840;2024-01-06T02:04:08;75756.41;;;-145.72;100.00
15914;BME280;8055;51.930;8.840;2024-01-06T02:06:33;75764.69;;;-145.72;100.00
15914;BME280;8055;51.930;8.840;2024-01-06T02:08:59;75766.75;;;-145.72;100.00
15914;BME280;8055;51.930;8.840;2024-01-06T02:11:24;75766.75;;;-145.72;100.00
15914;BME280;8055;51.930;8.840;2024-01-06T02:13:49;75762.63;;;-145.72;100.00
15914;BME280;8055;51.930;8.840;2024-01-06T02:16:15;75764.69;;;-145.72;100.00
15914;BME280;8055;51.930;8.840;2024-01-06T02:18:40;75760.53;;;-145.72;100.00
15914;BME280;8055;51.930;8.840;2024-01-06T02:21:06;75760.53;;;-145.72;100.00
15914;BME280;8055;51.930;8.840;2024-01-06T02:23:34;75760.53;;;-145.72;100.00
15914;BME280;8055;51.930;8.840;2024-01-06T02:26:00;75766.75;;;-145.72;100.00
15914;BME280;8055;51.930;8.840;2024-01-06T02:28:26;75768.81;;;-145.72;100.00
15914;BME280;8055;51.930;8.840;2024-01-06T02:30:51;75764.69;;;-145.72;100.00
15914;BME280;8055;51.930;8.840;2024-01-06T02:33:17;75766.75;;;-145.72;100.00
15914;BME280;8055;51.930;8.840;2024-01-06T02:35:47;75768.81;;;-145.72;100.00
15914;BME280;8055;51.930;8.840;2024-01-06T02:38:13;75770.88;;;-145.72;100.00
15914;BME280;8055;51.930;8.840;2024-01-06T02:40:38;75768.81;;;-145.72;100.00
15914;BME280;8055;51.930;8.840;2024-01-06T02:43:04;75770.88;;;-145.72;100.00
15914;BME280;8055;51.930;8.840;2024-01-06T02:45:29;75783.31;;;-145.72;100.00
15914;BME280;8055;51.930;8.840;2024-01-06T02:47:55;75779.16;;;-145.72;100.00
15914;BME280;8055;51.930;8.840;2024-01-06T02:50:20;75791.59;;;-145.72;100.00
15914;BME280;8055;51.930;8.840;2024-01-06T02:52:46;75795.72;;;-145.72;100.00
15914;BME280;8055;51.930;8.840;2024-01-06T02:55:11;75804.00;;;-145.72;100.00
15914;BME280;8055;51.930;8.840;2024-01-06T02:57:37;75801.94;;;-145.72;100.00
15914;BME280;8055;51.930;8.840;2024-01-06T03:00:03;75812.28;;;-145.72;100.00
15914;BME280;8055;51.930;8.840;2024-01-06T03:02:28;75820.56;;;-145.72;100.00
15914;BME280;8055;51.930;8.840;2024-01-06T03:04:54;75814.34;;;-145.72;100.00
15914;BME280;8055;51.930;8.840;2024-01-06T03:07:20;75826.75;;;-145.72;100.00
15914;BME280;8055;51.930;8.840;2024-01-06T03:09:46;75832.97;;;-145.72;100.00
15914;BME280;8055;51.930;8.840;2024-01-06T03:12:11;75832.97;;;-145.72;100.00
15914;BME280;8055;51.930;8.840;2024-01-06T03:14:37;75837.09;;;-145.72;100.00
15914;BME280;8055;51.930;8.840;2024-01-06T03:17:03;75839.19;;;-145.72;100.00
15914;BME280;8055;51.930;8.840;2024-01-06T03:19:30;75837.09;;;-145.72;100.00
15914;BME280;8055;51.930;8.840;2024-01-06T03:21:55;75837.09;;;-145.72;100.00
15914;BME280;8055;51.930;8.840;2024-01-06T03:24:22;75835.03;;;-145.72;100.00
15914;BME280;8055;51.930;8.840;2024-01-06T03:26:47;75837.09;;;-145.72;100.00
15914;BME280;8055;51.930;8.840;2024-01-06T03:29:13;75837.09;;;-145.72;100.00
15914;BME280;8055;51.930;8.840;2024-01-06T03:31:42;75832.97;;;-145.72;100.00
15914;BME280;8055;51.930;8.840;2024-01-06T03:34:08;75835.03;;;-145.72;100.00
15914;BME280;8055;51.930;8.840;2024-01-06T03:36:33;75845.38;;;-145.72;100.00
15914;BME280;8055;51.930;8.840;2024-01-06T03:38:59;75837.09;;;-145.72;100.00
15914;BME280;8055;51.930;8.840;2024-01-06T03:41:24;75837.09;;;-145.72;100.00
15914;BME280;8055;51.930;8.840;2024-01-06T03:43:50;75837.09;;;-145.72;100.00
15914;BME280;8055;51.930;8.840;2024-01-06T03:46:15;75841.25;;;-145.72;100.00
15914;BME280;8055;51.930;8.840;2024-01-06T03:48:40;75841.25;;;-145.72;100.00
15914;BME280;8055;51.930;8.840;2024-01-06T03:51:06;75845.38;;;-145.72;100.00
15914;BME280;8055;51.930;8.840;2024-01-06T03:53:32;75851.59;;;-145.72;100.00
15914;BME280;8055;51.930;8.840;2024-01-06T03:55:58;75849.53;;;-145.72;100.00
15914;BME280;8055;51.930;8.840;2024-01-06T03:58:23;75851.59;;;-145.72;100.00
15914;BME280;8055;51.930;8.840;2024-01-06T04:00:48;75851.59;;;-145.72;100.00
15914;BME280;8055;51.930;8.840;2024-01-06T04:03:14;75855.72;;;-145.72;100.00
15914;BME280;8055;51.930;8.840;2024-01-06T04:05:39;75853.66;;;-145.72;100.00
15914;BME280;8055;51.930;8.840;2024-01-06T04:08:05;75857.81;;;-145.72;100.00
15914;BME280;8055;51.930;8.840;2024-01-06T04:10:30;75843.31;;;-145.72;100.00
15914;BME280;8055;51.930;8.840;2024-01-06T04:12:55;75841.25;;;-145.72;100.00
15914;BME280;8055;51.930;8.840;2024-01-06T04:15:21;75841.25;;;-145.72;100.00
15914;BME280;8055;51.930;8.840;2024-01-06T04:17:48;75839.19;;;-145.72;100.00
15914;BME280;8055;51.930;8.840;2024-01-06T04:20:14;75843.31;;;-145.72;100.00
15914;BME280;8055;51.930;8.840;2024-01-06T04:22:39;75843.31;;;-145.72;100.00
15914;BME280;8055;51.930;8.840;2024-01-06T04:25:05;75847.44;;;-145.72;100.00
15914;BME280;8055;51.930;8.840;2024-01-06T04:27:30;75843.31;;;-145.72;100.00
15914;BME280;8055;51.930;8.840;2024-01-06T04:29:56;75847.44;;;-145.72;100.00
15914;BME280;8055;51.930;8.840;2024-01-06T04:32:21;75845.38;;;-145.72;100.00
15914;BME280;8055;51.930;8.840;2024-01-06T04:34:47;75845.38;;;-145.72;100.00
15914;BME280;8055;51.930;8.840;2024-01-06T04:37:12;75845.38;;;-145.72;100.00
15914;BME280;8055;51.930;8.840;2024-01-06T04:39:37;75849.53;;;-145.72;100.00
15914;BME280;8055;51.930;8.840;2024-01-06T04:42:04;75851.59;;;-145.72;100.00
15914;BME280;8055;51.930;8.840;2024-01-06T04:44:29;75857.81;;;-145.72;100.00
15914;BME280;8055;51.930;8.840;2024-01-06T04:46:55;75857.81;;;-145.72;100.00
15914;BME280;8055;51.930;8.840;2024-01-06T04:49:20;75857.81;;;-145.72;100.00
15914;BME280;8055;51.930;8.840;2024-01-06T04:51:47;75859.88;;;-145.72;100.00
15914;BME280;8055;51.930;8.840;2024-01-06T04:54:12;75859.88;;;-145.72;100.00
15914;BME280;8055;51.930;8.840;2024-01-06T04:56:38;75866.06;;;-145.72;100.00
15914;BME280;8055;51.930;8.840;2024-01-06T04:59:03;75853.66;;;-145.72;100.00
15914;BME280;8055;51.930;8.840;2024-01-06T05:01:28;75857.81;;;-145.72;100.00
15914;BME280;8055;51.930;8.840;2024-01-06T05:03:54;75859.88;;;-145.72;100.00
15914;BME280;8055;51.930;8.840;2024-01-06T05:06:19;75861.94;;;-145.72;100.00
15914;BME280;8055;51.930;8.840;2024-01-06T05:08:44;75859.88;;;-145.72;100.00
15914;BME280;8055;51.930;8.840;2024-01-06T05:11:11;75861.94;;;-145.72;100.00
15914;BME280;8055;51.930;8.840;2024-01-06T05:13:37;75857.81;;;-145.72;100.00
15914;BME280;8055;51.930;8.840;2024-01-06T05:16:03;75861.94;;;-145.72;100.00
15914;BME280;8055;51.930;8.840;2024-01-06T05:18:28;75866.06;;;-145.72;100.00
15914;BME280;8055;51.930;8.840;2024-01-06T05:20:54;75878.50;;;-145.72;100.00
15914;BME280;8055;51.930;8.840;2024-01-06T05:23:20;75876.44;;;-145.72;100.00
15914;BME280;8055;51.930;8.840;2024-01-06T05:25:46;75880.56;;;-145.72;100.00
15914;BME280;8055;51.930;8.840;2024-01-06T05:28:11;75882.63;;;-145.72;100.00
15914;BME280;8055;51.930;8.840;2024-01-06T05:30:36;75884.69;;;-145.72;100.00
15914;BME280;8055;51.930;8.840;2024-01-06T05:33:02;75890.91;;;-145.72;100.00
15914;BME280;8055;51.930;8.840;2024-01-06T05:35:29;75888.84;;;-145.72;100.00
15914;BME280;8055;51.930;8.840;2024-01-06T05:37:54;75888.84;;;-145.72;100.00
15914;BME280;8055;51.930;8.840;2024-01-06T05:40:19;75895.03;;;-145.72;100.00
15914;BME280;8055;51.930;8.840;2024-01-06T05:42:45;75895.03;;;-145.72;100.00
15914;BME280;8055;51.930;8.840;2024-01-06T05:45:11;75895.03;;;-145.72;100.00
15914;BME280;8055;51.930;8.840;2024-01-06T05:47:39;75892.97;;;-145.72;100.00
15914;BME280;8055;51.930;8.840;2024-01-06T05:50:05;75899.19;;;-145.72;100.00
15914;BME280;8055;51.930;8.840;2024-01-06T05:52:32;75905.41;;;-145.72;100.00
15914;BME280;8055;51.930;8.840;2024-01-06T05:54:58;75907.47;;;-145.72;100.00
15914;BME280;8055;51.930;8.840;2024-01-06T05:57:23;75905.41;;;-145.72;100.00
15914;BME280;8055;51.930;8.840;2024-01-06T05:59:49;75903.31;;;-145.72;100.00
15914;BME280;8055;51.930;8.840;2024-01-06T06:02:14;75909.53;;;-145.72;100.00
15914;BME280;8055;51.930;8.840;2024-01-06T06:04:39;75915.75;;;-145.72;100.00
15914;BME280;8055;51.930;8.840;2024-01-06T06:07:05;75917.81;;;-145.72;100.00
15914;BME280;8055;51.930;8.840;2024-01-06T06:09:30;75921.94;;;-145.72;100.00
15914;BME280;8055;51.930;8.840;2024-01-06T06:11:56;75932.28;;;-145.72;100.00
15914;BME280;8055;51.930;8.840;2024-01-06T06:14:21;75934.38;;;-145.72;100.00
15914;BME280;8055;51.930;8.840;2024-01-06T06:16:47;75942.63;;;-145.72;100.00
15914;BME280;8055;51.930;8.840;2024-01-06T06:19:13;75934.38;;;-145.72;100.00
15914;BME280;8055;51.930;8.840;2024-01-06T06:21:38;75934.38;;;-145.72;100.00
15914;BME280;8055;51.930;8.840;2024-01-06T06:24:04;75944.72;;;-145.72;100.00
15914;BME280;8055;51.930;8.840;2024-01-06T06:26:29;75946.78;;;-145.72;100.00
15914;BME280;8055;51.930;8.840;2024-01-06T06:28:55;75953.00;;;-145.72;100.00
15914;BME280;8055;51.930;8.840;2024-01-06T06:31:20;75957.13;;;-145.72;100.00
15914;BME280;8055;51.930;8.840;2024-01-06T06:33:46;75953.00;;;-145.72;100.00
15914;BME280;8055;51.930;8.840;2024-01-06T06:36:11;75967.47;;;-145.72;100.00
15914;BME280;8055;51.930;8.840;2024-01-06T06:38:36;75963.34;;;-145.72;100.00
15914;BME280;8055;51.930;8.840;2024-01-06T06:41:02;75969.53;;;-145.72;100.00
15914;BME280;8055;51.930;8.840;2024-01-06T06:43:27;75971.63;;;-145.72;100.00
15914;BME280;8055;51.930;8.840;2024-01-06T06:45:53;75973.69;;;-145.72;100.00
15914;BME280;8055;51.930;8.840;2024-01-06T06:48:20;75981.97;;;-145.72;100.00
15914;BME280;8055;51.930;8.840;2024-01-06T06:50:46;75986.09;;;-145.72;100.00
15914;BME280;8055;51.930;8.840;2024-01-06T06:53:11;75988.16;;;-145.72;100.00
15914;BME280;8055;51.930;8.840;2024-01-06T06:55:38;75990.25;;;-145.72;100.00
15914;BME280;8055;51.930;8.840;2024-01-06T06:58:04;75996.44;;;-145.72;100.00
15914;BME280;8055;51.930;8.840;2024-01-06T07:00:30;76000.59;;;-145.72;100.00
15914;BME280;8055;51.930;8.840;2024-01-06T07:02:55;76004.72;;;-145.72;100.00
15914;BME280;8055;51.930;8.840;2024-01-06T07:05:22;76008.84;;;-145.72;100.00
15914;BME280;8055;51.930;8.840;2024-01-06T07:07:47;76013.00;;;-145.72;100.00
15914;BME280;8055;51.930;8.840;2024-01-06T07:10:13;76021.28;;;-145.72;100.00
15914;BME280;8055;51.930;8.840;2024-01-06T07:12:38;76023.34;;;-145.72;100.00
15914;BME280;8055;51.930;8.840;2024-01-06T07:15:04;76033.69;;;-145.72;100.00
15914;BME280;8055;51.930;8.840;2024-01-06T07:17:29;76033.69;;;-145.72;100.00
15914;BME280;8055;51.930;8.840;2024-01-06T07:19:55;76031.63;;;-145.72;100.00
15914;BME280;8055;51.930;8.840;2024-01-06T07:22:20;76035.75;;;-145.72;100.00
15914;BME280;8055;51.930;8.840;2024-01-06T07:24:46;76039.91;;;-145.72;100.00
15914;BME280;8055;51.930;8.840;2024-01-06T07:27:11;76044.03;;;-145.72;100.00
15914;BME280;8055;51.930;8.840;2024-01-06T07:29:37;76037.84;;;-145.72;100.00
15914;BME280;8055;51.930;8.840;2024-01-06T07:32:03;76046.09;;;-145.72;100.00
15914;BME280;8055;51.930;8.840;2024-01-06T07:34:28;76046.09;;;-145.72;100.00
15914;BME280;8055;51.930;8.840;2024-01-06T07:36:54;76050.25;;;-145.72;100.00
15914;BME280;8055;51.930;8.840;2024-01-06T07:39:19;76064.72;;;-145.72;100.00
15914;BME280;8055;51.930;8.840;2024-01-06T07:41:44;76062.66;;;-145.72;100.00
15914;BME280;8055;51.930;8.840;2024-01-06T07:44:12;76068.88;;;-145.72;100.00
15914;BME280;8055;51.930;8.840;2024-01-06T07:46:38;76068.88;;;-145.72;100.00
15914;BME280;8055;51.930;8.840;2024-01-06T07:49:05;76079.22;;;-145.72;100.00
15914;BME280;8055;51.930;8.840;2024-01-06T07:51:30;76079.22;;;-145.72;100.00
15914;BME280;8055;51.930;8.840;2024-01-06T07:53:56;76075.09;;;-145.72;100.00
15914;BME280;8055;51.930;8.840;2024-01-06T07:56:21;76077.16;;;-145.72;100.00
15914;BME280;8055;51.930;8.840;2024-01-06T07:58:46;76079.22;;;-145.72;100.00
15914;BME280;8055;51.930;8.840;2024-01-06T08:01:12;76077.16;;;-145.72;100.00
15914;BME280;8055;51.930;8.840;2024-01-06T08:03:38;76083.34;;;-145.72;100.00
15914;BME280;8055;51.930;8.840;2024-01-06T08:06:04;76081.28;;;-145.72;100.00
15914;BME280;8055;51.930;8.840;2024-01-06T08:08:29;76093.72;;;-145.72;100.00
15914;BME280;8055;51.930;8.840;2024-01-06T08:10:54;76104.06;;;-145.72;100.00
15914;BME280;8055;51.930;8.840;2024-01-06T08:13:20;76118.53;;;-145.72;100.00
15914;BME280;8055;51.930;8.840;2024-01-06T08:15:45;76124.75;;;-145.72;100.00
15914;BME280;8055;51.930;8.840;2024-01-06T08:18:10;76137.16;;;-145.72;100.00
15914;BME280;8055;51.930;8.840;2024-01-06T08:20:36;76147.50;;;-145.72;100.00
15914;BME280;8055;51.930;8.840;2024-01-06T08:23:01;76141.31;;;-145.72;100.00
15914;BME280;8055;51.930;8.840;2024-01-06T08:25:26;76145.44;;;-145.72;100.00
15914;BME280;8055;51.930;8.840;2024-01-06T08:27:52;76147.50;;;-145.72;100.00
15914;BME280;8055;51.930;8.840;2024-01-06T08:30:19;76159.94;;;-145.72;100.00
15914;BME280;8055;51.930;8.840;2024-01-06T08:32:44;76162.00;;;-145.72;100.00
15914;BME280;8055;51.930;8.840;2024-01-06T08:35:10;76176.47;;;-145.72;100.00
15914;BME280;8055;51.930;8.840;2024-01-06T08:37:35;76180.63;;;-145.72;100.00
15914;BME280;8055;51.930;8.840;2024-01-06T08:40:00;76188.91;;;-145.72;100.00
15914;BME280;8055;51.930;8.840;2024-01-06T08:42:26;76211.66;;;-145.72;100.00
15914;BME280;8055;51.930;8.840;2024-01-06T08:44:51;76205.44;;;-145.72;100.00
15914;BME280;8055;51.930;8.840;2024-01-06T08:47:17;76205.44;;;-145.72;100.00
15914;BME280;8055;51.930;8.840;2024-01-06T08:49:42;76207.53;;;-145.72;100.00
15914;BME280;8055;51.930;8.840;2024-01-06T08:52:08;76213.72;;;-145.72;100.00
15914;BME280;8055;51.930;8.840;2024-01-06T08:54:33;76222.00;;;-145.72;100.00
15914;BME280;8055;51.930;8.840;2024-01-06T08:57:00;76222.00;;;-145.72;100.00
15914;BME280;8055;51.930;8.840;2024-01-06T08:59:25;76228.22;;;-145.72;100.00
15914;BME280;8055;51.930;8.840;2024-01-06T09:01:50;76226.16;;;-145.72;100.00
15914;BME280;8055;51.930;8.840;2024-01-06T09:04:17;76236.50;;;-145.72;100.00
15914;BME280;8055;51.930;8.840;2024-01-06T09:06:42;76234.44;;;-145.72;100.00
15914;BME280;8055;51.930;8.840;2024-01-06T09:09:08;76236.50;;;-145.72;100.00
15914;BME280;8055;51.930;8.840;2024-01-06T09:11:35;76234.44;;;-145.72;100.00
15914;BME280;8055;51.930;8.840;2024-01-06T09:14:00;76230.28;;;-145.72;100.00
15914;BME280;8055;51.930;8.840;2024-01-06T09:16:26;76234.44;;;-145.72;100.00
15914;BME280;8055;51.930;8.840;2024-01-06T09:18:51;76234.44;;;-145.72;100.00
15914;BME280;8055;51.930;8.840;2024-01-06T09:21:17;76232.34;;;-145.72;100.00
15914;BME280;8055;51.930;8.840;2024-01-06T09:23:43;76238.56;;;-145.72;100.00
15914;BME280;8055;51.930;8.840;2024-01-06T09:26:08;76240.63;;;-145.72;100.00
15914;BME280;8055;51.930;8.840;2024-01-06T09:28:33;76238.56;;;-145.72;100.00
15914;BME280;8055;51.930;8.840;2024-01-06T09:30:59;76250.97;;;-145.72;100.00
15914;BME280;8055;51.930;8.840;2024-01-06T09:33:24;76253.06;;;-145.72;100.00
15914;BME280;8055;51.930;8.840;2024-01-06T09:35:49;76261.34;;;-145.72;100.00
15914;BME280;8055;51.930;8.840;2024-01-06T09:38:16;76269.59;;;-145.72;100.00
15914;BME280;8055;51.930;8.840;2024-01-06T09:40:43;76267.53;;;-145.72;100.00
15914;BME280;8055;51.930;8.840;2024-01-06T09:43:10;76284.09;;;-145.72;100.00
15914;BME280;8055;51.930;8.840;2024-01-06T09:45:37;76286.16;;;-145.72;100.00
15914;BME280;8055;51.930;8.840;2024-01-06T09:48:11;76284.09;;;-145.72;100.00
15914;BME280;8055;51.930;8.840;2024-01-06T09:50:41;76292.38;;;-145.72;100.00
15914;BME280;8055;51.930;8.840;2024-01-06T09:53:09;76294.44;;;-145.72;100.00
15914;BME280;8055;51.930;8.840;2024-01-06T09:55:36;76294.44;;;-145.72;100.00
15914;BME280;8055;51.930;8.840;2024-01-06T09:58:02;76296.50;;;-145.72;100.00
15914;BME280;8055;51.930;8.840;2024-01-06T10:00:28;76300.66;;;-145.72;100.00
15914;BME280;8055;51.930;8.840;2024-01-06T10:02:53;76302.72;;;-145.72;100.00
15914;BME280;8055;51.930;8.840;2024-01-06T10:05:20;76302.72;;;-145.72;100.00
15914;BME280;8055;51.930;8.840;2024-01-06T10:07:46;76304.78;;;-145.72;100.00
15914;BME280;8055;51.930;8.840;2024-01-06T10:10:13;76308.94;;;-145.72;100.00
15914;BME280;8055;51.930;8.840;2024-01-06T10:12:40;76313.06;;;-145.72;100.00
15914;BME280;8055;51.930;8.840;2024-01-06T10:15:10;76321.34;;;-145.72;100.00
15914;BME280;8055;51.930;8.840;2024-01-06T10:17:39;76323.41;;;-145.72;100.00
15914;BME280;8055;51.930;8.840;2024-01-06T10:20:09;76317.22;;;-145.72;100.00
15914;BME280;8055;51.930;8.840;2024-01-06T10:22:40;76313.06;;;-145.72;100.00
15914;BME280;8055;51.930;8.840;2024-01-06T10:25:07;76321.34;;;-145.72;100.00
15914;BME280;8055;51.930;8.840;2024-01-06T10:27:37;76319.28;;;-145.72;100.00
15914;BME280;8055;51.930;8.840;2024-01-06T10:30:03;76317.22;;;-145.72;100.00
15914;BME280;8055;51.930;8.840;2024-01-06T10:32:32;76319.28;;;-145.72;100.00
15914;BME280;8055;51.930;8.840;2024-01-06T10:35:03;76317.22;;;-145.72;100.00
15914;BME280;8055;51.930;8.840;2024-01-06T10:37:29;76323.41;;;-145.72;100.00
15914;BME280;8055;51.930;8.840;2024-01-06T10:40:11;76321.34;;;-145.72;100.00
15914;BME280;8055;51.930;8.840;2024-01-06T10:42:38;76325.47;;;-145.72;100.00
15914;BME280;8055;51.930;8.840;2024-01-06T10:45:06;76321.34;;;-145.72;100.00
15914;BME280;8055;51.930;8.840;2024-01-06T10:47:35;76327.56;;;-145.72;100.00
15914;BME280;8055;51.930;8.840;2024-01-06T10:50:01;76331.69;;;-145.72;100.00
15914;BME280;8055;51.930;8.840;2024-01-06T10:52:29;76329.63;;;-145.72;100.00
15914;BME280;8055;51.930;8.840;2024-01-06T10:54:58;76337.91;;;-145.72;100.00
15914;BME280;8055;51.930;8.840;2024-01-06T10:57:24;76346.19;;;-145.72;100.00
15914;BME280;8055;51.930;8.840;2024-01-06T10:59:51;76354.47;;;-145.72;100.00
15914;BME280;8055;51.930;8.840;2024-01-06T11:02:17;76368.94;;;-145.72;100.00
15914;BME280;8055;51.930;8.840;2024-01-06T11:04:45;76373.09;;;-145.72;100.00
15914;BME280;8055;51.930;8.840;2024-01-06T11:07:11;76366.88;;;-145.72;100.00
15914;BME280;8055;51.930;8.840;2024-01-06T11:09:39;76368.94;;;-145.72;100.00
15914;BME280;8055;51.930;8.840;2024-01-06T11:12:08;76371.00;;;-145.72;100.00
15914;BME280;8055;51.930;8.840;2024-01-06T11:14:37;76389.63;;;-145.72;100.00
15914;BME280;8055;51.930;8.840;2024-01-06T11:17:03;76397.91;;;-145.72;100.00
15914;BME280;8055;51.930;8.840;2024-01-06T11:22:29;76393.78;;;-145.72;100.00
15914;BME280;8055;51.930;8.840;2024-01-06T11:25:04;76389.63;;;-145.72;100.00
15914;BME280;8055;51.930;8.840;2024-01-06T11:27:30;76393.78;;;-145.72;100.00
15914;BME280;8055;51.930;8.840;2024-01-06T11:30:00;76391.72;;;-145.72;100.00
15914;BME280;8055;51.930;8.840;2024-01-06T11:32:36;76391.72;;;-145.72;100.00
15914;BME280;8055;51.930;8.840;2024-01-06T11:35:13;76393.78;;;-145.72;100.00
15914;BME280;8055;51.930;8.840;2024-01-06T11:40:25;76397.91;;;-145.72;100.00
15914;BME280;8055;51.930;8.840;2024-01-06T11:43:01;76400.00;;;-145.72;100.00
15914;BME280;8055;51.930;8.840;2024-01-06T11:45:28;76406.19;;;-145.72;100.00
15914;BME280;8055;51.930;8.840;2024-01-06T11:47:56;76406.19;;;-145.72;100.00
15914;BME280;8055;51.930;8.840;2024-01-06T11:50:25;76406.19;;;-145.72;100.00
15914;BME280;8055;51.930;8.840;2024-01-06T11:52:51;76408.25;;;-145.72;100.00
15914;BME280;8055;51.930;8.840;2024-01-06T11:55:20;76408.25;;;-145.72;100.00
15914;BME280;8055;51.930;8.840;2024-01-06T11:57:45;76404.13;;;-145.72;100.00
15914;BME280;8055;51.930;8.840;2024-01-06T12:00:12;76404.13;;;-145.72;100.00
15914;BME280;8055;51.930;8.840;2024-01-06T12:02:40;76400.00;;;-145.72;100.00
15914;BME280;8055;51.930;8.840;2024-01-06T12:05:05;76395.84;;;-145.72;100.00
15914;BME280;8055;51.930;8.840;2024-01-06T12:07:31;76395.84;;;-145.72;100.00
15914;BME280;8055;51.930;8.840;2024-01-06T12:10:01;76400.00;;;-145.72;100.00
15914;BME280;8055;51.930;8.840;2024-01-06T12:12:27;76404.13;;;-145.72;100.00
15914;BME280;8055;51.930;8.840;2024-01-06T12:14:52;76431.03;;;-145.72;100.00
15914;BME280;8055;51.930;8.840;2024-01-06T12:17:20;76424.81;;;-145.72;100.00
15914;BME280;8055;51.930;8.840;2024-01-06T12:19:46;76416.53;;;-145.72;100.00
15914;BME280;8055;51.930;8.840;2024-01-06T12:22:13;76422.75;;;-145.72;100.00
15914;BME280;8055;51.930;8.840;2024-01-06T12:24:39;76435.16;;;-145.72;100.00
15914;BME280;8055;51.930;8.840;2024-01-06T12:27:07;76435.16;;;-145.72;100.00
15914;BME280;8055;51.930;8.840;2024-01-06T12:29:37;76437.25;;;-145.72;100.00
15914;BME280;8055;51.930;8.840;2024-01-06T12:32:03;76435.16;;;-145.72;100.00
15914;BME280;8055;51.930;8.840;2024-01-06T12:34:29;76431.03;;;-145.72;100.00
15914;BME280;8055;51.930;8.840;2024-01-06T12:36:54;76457.94;;;-145.72;100.00
15914;BME280;8055;51.930;8.840;2024-01-06T12:39:27;76453.78;;;-145.72;100.00